createdAt,value
2022-10-21T00:00:50.221Z,0
2022-10-21T00:01:53.055Z,0
2022-10-21T00:02:50.221Z,0
2022-10-21T00:03:50.307Z,0
2022-10-21T00:04:50.261Z,0
2022-10-21T00:05:50.239Z,0
2022-10-21T00:06:50.241Z,0
2022-10-21T00:07:53.444Z,0
2022-10-21T00:08:50.570Z,0
2022-10-21T00:09:50.227Z,0
2022-10-21T00:10:50.222Z,0
2022-10-21T00:11:50.281Z,0
2022-10-21T00:12:51.382Z,0
2022-10-21T00:13:50.244Z,0
2022-10-21T00:14:52.508Z,0
2022-10-21T00:15:50.237Z,0
2022-10-21T00:16:50.389Z,0
2022-10-21T00:17:50.247Z,0
2022-10-21T00:18:52.772Z,0
2022-10-21T00:19:50.291Z,0
2022-10-21T00:20:50.285Z,0
2022-10-21T00:21:50.257Z,0
2022-10-21T00:22:50.349Z,0
2022-10-21T00:23:53.185Z,0
2022-10-21T00:24:50.253Z,0
2022-10-21T00:25:50.252Z,0
2022-10-21T00:26:50.278Z,0
2022-10-21T00:27:50.264Z,0
2022-10-21T00:28:50.274Z,0
2022-10-21T00:29:50.262Z,0
2022-10-21T00:30:50.267Z,0
2022-10-21T00:31:50.370Z,0
2022-10-21T00:32:50.282Z,0
2022-10-21T00:33:50.280Z,0
2022-10-21T00:34:53.384Z,0
2022-10-21T00:35:50.273Z,0
2022-10-21T00:36:50.312Z,0
2022-10-21T00:37:50.296Z,0
2022-10-21T00:38:50.289Z,0
2022-10-21T00:39:50.317Z,0
2022-10-21T00:40:50.282Z,0
2022-10-21T00:41:50.298Z,0
2022-10-21T00:42:53.962Z,0
2022-10-21T00:43:50.287Z,0
2022-10-21T00:44:50.283Z,0
2022-10-21T00:45:53.184Z,0
2022-10-21T00:46:50.305Z,0
2022-10-21T00:47:50.349Z,0
2022-10-21T00:48:50.289Z,0
2022-10-21T00:49:50.296Z,0
2022-10-21T00:50:50.365Z,0
2022-10-21T00:51:50.309Z,0
2022-10-21T00:52:50.323Z,0
2022-10-21T00:53:50.297Z,0
2022-10-21T00:54:50.336Z,0
2022-10-21T00:55:50.329Z,0
2022-10-21T00:56:54.353Z,0
2022-10-21T00:57:50.307Z,0
2022-10-21T00:58:50.309Z,0
2022-10-21T00:59:50.316Z,0
2022-10-21T01:00:50.574Z,0
2022-10-21T01:01:50.490Z,0
2022-10-21T01:02:50.335Z,0
2022-10-21T01:03:50.341Z,0
2022-10-21T01:04:50.326Z,0
2022-10-21T01:05:53.337Z,0
2022-10-21T01:06:50.353Z,0
2022-10-21T01:07:52.736Z,0
2022-10-21T01:08:50.747Z,0
2022-10-21T01:09:50.340Z,0
2022-10-21T01:10:50.333Z,0
2022-10-21T01:11:50.393Z,0
2022-10-21T01:12:53.169Z,0
2022-10-21T01:13:50.381Z,0
2022-10-21T01:14:50.407Z,0
2022-10-21T01:15:50.350Z,0
2022-10-21T01:16:54.744Z,0
2022-10-21T01:17:53.903Z,0
2022-10-21T01:18:53.255Z,0
2022-10-21T01:19:50.354Z,0
2022-10-21T01:20:50.347Z,0
2022-10-21T01:21:50.407Z,0
2022-10-21T01:22:50.373Z,0
2022-10-21T01:23:51.411Z,0
2022-10-21T01:24:50.377Z,0
2022-10-21T01:25:50.366Z,0
2022-10-21T01:26:50.377Z,0
2022-10-21T01:27:50.544Z,0
2022-10-21T01:28:51.445Z,0
2022-10-21T01:29:50.404Z,0
2022-10-21T01:30:50.364Z,0
2022-10-21T01:31:50.381Z,0
2022-10-21T01:32:50.368Z,0
2022-10-21T01:33:50.372Z,0
2022-10-21T01:34:53.135Z,0
2022-10-21T01:35:50.378Z,0
2022-10-21T01:36:50.406Z,0
2022-10-21T01:37:50.686Z,0
2022-10-21T01:38:50.423Z,0
2022-10-21T01:39:50.381Z,0
2022-10-21T01:40:50.403Z,0
2022-10-21T01:41:50.412Z,0
2022-10-21T01:42:50.392Z,0
2022-10-21T01:43:50.404Z,0
2022-10-21T01:44:50.380Z,0
2022-10-21T01:45:50.415Z,0
2022-10-21T01:46:50.413Z,0
2022-10-21T01:47:50.419Z,0
2022-10-21T01:48:50.400Z,0
2022-10-21T01:49:50.395Z,0
2022-10-21T01:50:50.398Z,0
2022-10-21T01:51:50.419Z,0
2022-10-21T01:52:50.472Z,0
2022-10-21T01:53:50.448Z,0
2022-10-21T01:54:50.435Z,0
2022-10-21T01:55:50.408Z,0
2022-10-21T01:56:50.778Z,0
2022-10-21T01:57:50.418Z,0
2022-10-21T01:58:50.401Z,0
2022-10-21T01:59:50.442Z,0
2022-10-21T02:00:50.703Z,0
2022-10-21T02:01:53.253Z,0
2022-10-21T02:02:50.429Z,0
2022-10-21T02:03:50.433Z,0
2022-10-21T02:04:50.410Z,0
2022-10-21T02:05:53.462Z,0
2022-10-21T02:06:54.062Z,0
2022-10-21T02:07:50.440Z,0
2022-10-21T02:08:50.797Z,0
2022-10-21T02:09:50.479Z,0
2022-10-21T02:10:50.425Z,0
2022-10-21T02:11:50.490Z,0
2022-10-21T02:12:53.528Z,0
2022-10-21T02:13:50.440Z,0
2022-10-21T02:14:50.444Z,0
2022-10-21T02:15:50.469Z,0
2022-10-21T02:16:50.459Z,0
2022-10-21T02:17:53.472Z,0
2022-10-21T02:18:50.526Z,0
2022-10-21T02:19:50.455Z,0
2022-10-21T02:20:50.465Z,0
2022-10-21T02:21:50.471Z,0
2022-10-21T02:22:50.449Z,0
2022-10-21T02:23:53.542Z,0
2022-10-21T02:24:50.451Z,0
2022-10-21T02:25:50.511Z,0
2022-10-21T02:26:50.626Z,0
2022-10-21T02:27:50.505Z,0
2022-10-21T02:28:53.489Z,0
2022-10-21T02:29:50.580Z,0
2022-10-21T02:30:50.487Z,0
2022-10-21T02:31:50.505Z,0
2022-10-21T02:32:51.488Z,0
2022-10-21T02:33:50.466Z,0
2022-10-21T02:34:53.560Z,0
2022-10-21T02:35:50.465Z,0
2022-10-21T02:36:50.497Z,0
2022-10-21T02:37:50.489Z,0
2022-10-21T02:38:50.487Z,0
2022-10-21T02:39:51.541Z,0
2022-10-21T02:40:50.493Z,0
2022-10-21T02:41:50.585Z,0
2022-10-21T02:42:50.524Z,0
2022-10-21T02:43:50.594Z,0
2022-10-21T02:44:50.539Z,0
2022-10-21T02:45:53.499Z,0
2022-10-21T02:46:50.503Z,0
2022-10-21T02:47:50.517Z,0
2022-10-21T02:48:50.498Z,0
2022-10-21T02:49:50.488Z,0
2022-10-21T02:50:53.270Z,0
2022-10-21T02:51:50.519Z,0
2022-10-21T02:52:50.494Z,0
2022-10-21T02:53:50.534Z,0
2022-10-21T02:54:50.513Z,0
2022-10-21T02:55:50.511Z,0
2022-10-21T02:56:54.304Z,0
2022-10-21T02:57:50.540Z,0
2022-10-21T02:58:50.514Z,0
2022-10-21T02:59:50.519Z,0
2022-10-21T03:00:50.966Z,0
2022-10-21T03:01:53.554Z,0
2022-10-21T03:02:50.510Z,0
2022-10-21T03:03:50.717Z,0
2022-10-21T03:04:50.527Z,0
2022-10-21T03:05:53.509Z,0
2022-10-21T03:06:50.516Z,0
2022-10-21T03:07:50.527Z,0
2022-10-21T03:08:50.709Z,0
2022-10-21T03:09:50.533Z,0
2022-10-21T03:10:55.959Z,0
2022-10-21T03:11:50.530Z,0
2022-10-21T03:12:53.631Z,0
2022-10-21T03:13:50.573Z,0
2022-10-21T03:14:50.551Z,0
2022-10-21T03:15:50.534Z,0
2022-10-21T03:16:50.567Z,0
2022-10-21T03:17:50.539Z,0
2022-10-21T03:18:50.538Z,0
2022-10-21T03:19:50.572Z,0
2022-10-21T03:20:50.568Z,0
2022-10-21T03:21:50.615Z,0
2022-10-21T03:22:50.591Z,0
2022-10-21T03:23:53.375Z,0
2022-10-21T03:24:50.589Z,0
2022-10-21T03:25:50.586Z,0
2022-10-21T03:26:50.578Z,0
2022-10-21T03:27:50.555Z,0
2022-10-21T03:28:50.656Z,0
2022-10-21T03:29:50.582Z,0
2022-10-21T03:30:50.559Z,0
2022-10-21T03:31:50.577Z,0
2022-10-21T03:32:50.609Z,0
2022-10-21T03:33:50.557Z,0
2022-10-21T03:34:53.601Z,0
2022-10-21T03:35:50.573Z,0
2022-10-21T03:36:50.574Z,0
2022-10-21T03:37:50.779Z,0
2022-10-21T03:38:50.576Z,0
2022-10-21T03:39:53.581Z,0
2022-10-21T03:40:50.579Z,0
2022-10-21T03:41:50.573Z,0
2022-10-21T03:42:50.578Z,0
2022-10-21T03:43:50.583Z,0
2022-10-21T03:44:50.608Z,0
2022-10-21T03:46:55.849Z,0
2022-10-21T03:47:11.843Z,0
2022-10-21T03:48:06.458Z,0
2022-10-21T03:49:23.592Z,0
2022-10-21T04:01:54.263Z,0
2022-10-21T04:02:53.758Z,0
2022-10-21T04:03:53.793Z,0
2022-10-21T04:04:53.770Z,0
2022-10-21T04:05:53.945Z,0
2022-10-21T04:06:53.796Z,0
2022-10-21T04:08:02.863Z,0
2022-10-21T04:08:54.065Z,0
2022-10-21T04:09:53.786Z,0
2022-10-21T04:11:56.879Z,0
2022-10-21T04:12:56.776Z,0
2022-10-21T04:13:53.813Z,0
2022-10-21T04:14:53.786Z,0
2022-10-21T04:15:53.784Z,0
2022-10-21T04:17:09.396Z,0
2022-10-21T04:17:53.805Z,0
2022-10-21T04:18:53.784Z,0
2022-10-21T04:19:53.819Z,0
2022-10-21T04:20:53.788Z,0
2022-10-21T04:21:53.834Z,0
2022-10-21T04:22:53.790Z,0
2022-10-21T04:23:56.660Z,0
2022-10-21T04:24:53.794Z,0
2022-10-21T04:25:53.808Z,0
2022-10-21T04:26:53.870Z,0
2022-10-21T04:27:53.797Z,0
2022-10-21T04:29:00.114Z,0
2022-10-21T04:29:53.804Z,0
2022-10-21T04:30:53.801Z,0
2022-10-21T04:32:53.840Z,0
2022-10-21T04:33:53.832Z,0
2022-10-21T04:34:53.822Z,0
2022-10-21T04:35:53.830Z,0
2022-10-21T04:36:53.842Z,0
2022-10-21T04:37:53.841Z,0
2022-10-21T04:38:53.811Z,0
2022-10-21T04:39:56.891Z,0
2022-10-21T04:40:53.816Z,0
2022-10-21T04:41:53.833Z,0
2022-10-21T04:42:53.825Z,0
2022-10-21T04:43:53.826Z,0
2022-10-21T04:44:53.816Z,0
2022-10-21T04:45:53.814Z,0
2022-10-21T04:46:53.849Z,0
2022-10-21T04:47:53.837Z,0
2022-10-21T04:48:53.876Z,0
2022-10-21T04:49:53.908Z,0
2022-10-21T04:50:56.605Z,0
2022-10-21T04:51:53.891Z,0
2022-10-21T04:52:53.844Z,0
2022-10-21T04:53:53.868Z,0
2022-10-21T04:54:53.862Z,0
2022-10-21T04:55:53.874Z,0
2022-10-21T04:56:53.874Z,0
2022-10-21T04:57:53.860Z,0
2022-10-21T04:58:53.857Z,0
2022-10-21T04:59:53.863Z,0
2022-10-21T05:00:54.161Z,0
2022-10-21T05:01:56.929Z,0
2022-10-21T05:02:53.870Z,0
2022-10-21T05:03:53.860Z,0
2022-10-21T05:04:53.895Z,0
2022-10-21T05:05:53.892Z,0
2022-10-21T05:06:53.900Z,0
2022-10-21T05:07:53.885Z,0
2022-10-21T05:08:54.136Z,0
2022-10-21T05:09:53.948Z,0
2022-10-21T05:10:53.874Z,0
2022-10-21T05:11:53.911Z,0
2022-10-21T05:12:57.021Z,0
2022-10-21T05:13:53.874Z,0
2022-10-21T05:14:53.879Z,0
2022-10-21T05:15:53.883Z,0
2022-10-21T05:16:53.893Z,0
2022-10-21T05:17:56.739Z,0
2022-10-21T05:18:53.913Z,0
2022-10-21T05:19:53.911Z,0
2022-10-21T05:20:53.915Z,0
2022-10-21T05:21:53.986Z,0
2022-10-21T05:22:53.903Z,0
2022-10-21T05:23:56.700Z,0
2022-10-21T05:24:53.951Z,0
2022-10-21T05:25:53.939Z,0
2022-10-21T05:26:53.970Z,0
2022-10-21T05:27:53.916Z,0
2022-10-21T05:28:55.011Z,0
2022-10-21T05:29:53.912Z,0
2022-10-21T05:30:53.947Z,0
2022-10-21T05:31:53.953Z,4
2022-10-21T05:32:54.048Z,4
2022-10-21T05:33:53.927Z,4
2022-10-21T05:35:02.895Z,0
2022-10-21T05:35:53.916Z,0
2022-10-21T05:36:53.980Z,0
2022-10-21T05:37:54.041Z,0
2022-10-21T05:38:54.005Z,4
2022-10-21T05:39:56.757Z,4
2022-10-21T05:40:53.941Z,0
2022-10-21T05:41:55.101Z,4
2022-10-21T05:42:56.976Z,4
2022-10-21T05:43:53.953Z,4
2022-10-21T05:44:54.045Z,4
2022-10-21T05:45:57.264Z,4
2022-10-21T05:46:56.750Z,4
2022-10-21T05:47:53.929Z,4
2022-10-21T05:48:54.984Z,8
2022-10-21T05:49:53.934Z,8
2022-10-21T05:50:57.014Z,4
2022-10-21T05:51:53.983Z,4
2022-10-21T05:52:58.454Z,4
2022-10-21T05:53:53.982Z,8
2022-10-21T05:54:54.068Z,4
2022-10-21T05:55:53.986Z,8
2022-10-21T05:56:56.988Z,8
2022-10-21T05:57:54.073Z,4
2022-10-21T05:58:53.969Z,8
2022-10-21T05:59:53.965Z,8
2022-10-21T06:00:54.249Z,8
2022-10-21T06:01:57.412Z,8
2022-10-21T06:02:53.965Z,12
2022-10-21T06:03:53.948Z,12
2022-10-21T06:04:53.953Z,12
2022-10-21T06:05:53.960Z,12
2022-10-21T06:06:54.229Z,8
2022-10-21T06:07:56.997Z,12
2022-10-21T06:08:54.246Z,12
2022-10-21T06:09:56.905Z,12
2022-10-21T06:10:53.987Z,12
2022-10-21T06:11:54.021Z,12
2022-10-21T06:12:56.808Z,12
2022-10-21T06:13:53.986Z,12
2022-10-21T06:14:53.994Z,12
2022-10-21T06:15:57.211Z,16
2022-10-21T06:16:54.081Z,16
2022-10-21T06:17:53.993Z,16
2022-10-21T06:18:54.058Z,20
2022-10-21T06:19:57.651Z,20
2022-10-21T06:20:57.044Z,20
2022-10-21T06:21:54.041Z,24
2022-10-21T06:22:54.052Z,24
2022-10-21T06:23:54.022Z,24
2022-10-21T06:24:57.096Z,24
2022-10-21T06:25:53.999Z,20
2022-10-21T06:26:57.314Z,24
2022-10-21T06:27:54.029Z,24
2022-10-21T06:28:57.119Z,28
2022-10-21T06:29:54.001Z,32
2022-10-21T06:30:54.013Z,32
2022-10-21T06:31:54.045Z,36
2022-10-21T06:32:54.178Z,36
2022-10-21T06:33:54.036Z,40
2022-10-21T06:34:54.019Z,40
2022-10-21T06:35:54.014Z,44
2022-10-21T06:36:54.047Z,44
2022-10-21T06:37:54.021Z,40
2022-10-21T06:38:54.025Z,44
2022-10-21T06:39:57.026Z,44
2022-10-21T06:40:54.103Z,48
2022-10-21T06:41:54.059Z,52
2022-10-21T06:42:54.329Z,52
2022-10-21T06:43:54.055Z,56
2022-10-21T06:44:59.341Z,56
2022-10-21T06:45:54.040Z,56
2022-10-21T06:46:54.045Z,56
2022-10-21T06:47:54.050Z,60
2022-10-21T06:48:54.103Z,56
2022-10-21T06:49:54.045Z,60
2022-10-21T06:50:56.827Z,60
2022-10-21T06:51:54.113Z,56
2022-10-21T06:52:54.062Z,60
2022-10-21T06:53:54.117Z,60
2022-10-21T06:54:54.156Z,56
2022-10-21T06:55:57.111Z,56
2022-10-21T06:56:55.241Z,56
2022-10-21T06:57:54.041Z,52
2022-10-21T06:58:54.067Z,56
2022-10-21T06:59:54.069Z,60
2022-10-21T07:00:54.075Z,64
2022-10-21T07:02:06.928Z,76
2022-10-21T07:02:54.044Z,80
2022-10-21T07:03:55.100Z,88
2022-10-21T07:04:54.065Z,92
2022-10-21T07:05:54.235Z,96
2022-10-21T07:06:57.162Z,92
2022-10-21T07:07:54.843Z,88
2022-10-21T07:09:05.296Z,84
2022-10-21T07:09:54.332Z,84
2022-10-21T07:10:54.074Z,80
2022-10-21T07:11:54.130Z,80
2022-10-21T07:12:54.103Z,76
2022-10-21T07:13:54.097Z,68
2022-10-21T07:14:54.116Z,64
2022-10-21T07:16:54.123Z,56
2022-10-21T07:17:57.143Z,64
2022-10-21T07:18:54.077Z,72
2022-10-21T07:19:54.105Z,84
2022-10-21T07:20:54.117Z,92
2022-10-21T07:21:54.099Z,104
2022-10-21T07:22:54.113Z,112
2022-10-21T07:24:00.095Z,116
2022-10-21T07:24:54.420Z,120
2022-10-21T07:25:54.096Z,116
2022-10-21T07:26:54.095Z,108
2022-10-21T07:27:55.347Z,104
2022-10-21T07:28:57.176Z,96
2022-10-21T07:29:54.104Z,96
2022-10-21T07:30:54.122Z,92
2022-10-21T07:31:54.106Z,92
2022-10-21T07:32:54.291Z,92
2022-10-21T07:33:54.340Z,92
2022-10-21T07:34:54.112Z,92
2022-10-21T07:35:54.105Z,88
2022-10-21T07:36:54.101Z,84
2022-10-21T07:37:54.126Z,80
2022-10-21T07:38:54.126Z,76
2022-10-21T07:39:56.871Z,76
2022-10-21T07:40:54.139Z,76
2022-10-21T07:41:54.119Z,76
2022-10-21T07:42:54.135Z,80
2022-10-21T07:43:54.163Z,84
2022-10-21T07:44:57.214Z,88
2022-10-21T07:45:54.174Z,92
2022-10-21T07:46:54.157Z,96
2022-10-21T07:47:54.148Z,100
2022-10-21T07:48:54.178Z,104
2022-10-21T07:49:54.127Z,104
2022-10-21T07:50:57.074Z,108
2022-10-21T07:51:54.135Z,112
2022-10-21T07:53:17.932Z,120
2022-10-21T07:53:54.171Z,124
2022-10-21T07:54:55.174Z,132
2022-10-21T07:55:56.995Z,144
2022-10-21T07:56:54.291Z,152
2022-10-21T07:57:54.162Z,148
2022-10-21T07:58:54.145Z,148
2022-10-21T07:59:54.181Z,144
2022-10-21T08:00:54.546Z,144
2022-10-21T08:01:57.002Z,144
2022-10-21T08:02:54.214Z,144
2022-10-21T08:03:54.156Z,136
2022-10-21T08:04:54.182Z,124
2022-10-21T08:05:54.181Z,112
2022-10-21T08:06:56.999Z,100
2022-10-21T08:07:54.215Z,96
2022-10-21T08:08:54.499Z,88
2022-10-21T08:09:54.169Z,84
2022-10-21T08:10:54.511Z,88
2022-10-21T08:11:54.167Z,92
2022-10-21T08:12:56.991Z,104
2022-10-21T08:13:54.182Z,112
2022-10-21T08:14:54.177Z,116
2022-10-21T08:15:54.207Z,116
2022-10-21T08:16:54.227Z,120
2022-10-21T08:17:57.326Z,120
2022-10-21T08:18:54.193Z,120
2022-10-21T08:20:54.212Z,128
2022-10-21T08:21:54.184Z,132
2022-10-21T08:22:54.210Z,132
2022-10-21T08:23:57.197Z,136
2022-10-21T08:24:54.198Z,136
2022-10-21T08:25:54.267Z,140
2022-10-21T08:26:55.279Z,140
2022-10-21T08:27:54.223Z,148
2022-10-21T08:29:54.237Z,160
2022-10-21T08:30:56.996Z,164
2022-10-21T08:31:54.225Z,168
2022-10-21T08:32:57.079Z,168
2022-10-21T08:33:54.267Z,172
2022-10-21T08:34:57.378Z,168
2022-10-21T08:35:54.217Z,168
2022-10-21T08:36:54.273Z,164
2022-10-21T08:37:54.351Z,156
2022-10-21T08:38:54.223Z,148
2022-10-21T08:39:57.086Z,136
2022-10-21T08:41:00.254Z,128
2022-10-21T08:41:54.269Z,120
2022-10-21T08:42:54.281Z,116
2022-10-21T08:43:54.418Z,112
2022-10-21T08:44:54.237Z,108
2022-10-21T08:45:54.255Z,100
2022-10-21T08:46:54.230Z,96
2022-10-21T08:47:54.135Z,96
2022-10-21T08:48:54.282Z,96
2022-10-21T08:49:54.256Z,92
2022-10-21T08:50:54.234Z,92
2022-10-21T08:51:54.249Z,92
2022-10-21T08:52:54.291Z,96
2022-10-21T08:53:54.266Z,104
2022-10-21T08:54:57.000Z,112
2022-10-21T08:55:54.252Z,112
2022-10-21T08:56:54.272Z,112
2022-10-21T08:57:54.320Z,116
2022-10-21T08:58:54.266Z,116
2022-10-21T08:59:54.280Z,120
2022-10-21T09:00:54.288Z,124
2022-10-21T09:01:54.259Z,124
2022-10-21T09:02:54.650Z,120
2022-10-21T09:03:54.287Z,120
2022-10-21T09:04:54.288Z,120
2022-10-21T09:05:54.388Z,120
2022-10-21T09:06:57.162Z,116
2022-10-21T09:07:54.357Z,116
2022-10-21T09:08:59.759Z,116
2022-10-21T09:09:54.273Z,112
2022-10-21T09:10:54.269Z,112
2022-10-21T09:11:54.270Z,112
2022-10-21T09:12:54.292Z,108
2022-10-21T09:13:54.272Z,108
2022-10-21T09:14:54.314Z,104
2022-10-21T09:15:54.285Z,104
2022-10-21T09:16:54.301Z,104
2022-10-21T09:17:57.189Z,108
2022-10-21T09:18:54.311Z,108
2022-10-21T09:19:54.410Z,112
2022-10-21T09:21:06.052Z,112
2022-10-21T09:22:01.461Z,116
2022-10-21T09:22:57.388Z,116
2022-10-21T09:23:54.315Z,120
2022-10-21T09:24:54.325Z,120
2022-10-21T09:25:54.300Z,120
2022-10-21T09:26:54.300Z,120
2022-10-21T09:28:10.378Z,120
2022-10-21T09:28:54.344Z,120
2022-10-21T09:29:54.317Z,120
2022-10-21T09:30:54.313Z,120
2022-10-21T09:32:06.763Z,120
2022-10-21T09:32:54.350Z,124
2022-10-21T09:33:57.265Z,128
2022-10-21T09:34:54.335Z,128
2022-10-21T09:35:54.369Z,136
2022-10-21T09:36:54.370Z,140
2022-10-21T09:37:54.398Z,144
2022-10-21T09:38:54.333Z,144
2022-10-21T09:39:54.330Z,140
2022-10-21T09:40:54.350Z,132
2022-10-21T09:42:00.113Z,128
2022-10-21T09:42:56.545Z,128
2022-10-21T09:43:57.297Z,132
2022-10-21T09:44:57.353Z,136
2022-10-21T09:45:57.070Z,144
2022-10-21T09:46:54.344Z,152
2022-10-21T09:47:55.768Z,156
2022-10-21T09:50:15.665Z,172
2022-10-21T09:50:25.684Z,176
2022-10-21T09:51:25.316Z,184
2022-10-21T09:52:25.306Z,192
2022-10-21T09:53:32.452Z,192
2022-10-21T09:54:25.408Z,200
2022-10-21T09:55:25.327Z,212
2022-10-21T09:56:25.357Z,220
2022-10-21T09:57:25.448Z,216
2022-10-21T09:58:25.488Z,208
2022-10-21T09:59:29.148Z,188
2022-10-21T10:00:25.355Z,168
2022-10-21T10:01:25.333Z,160
2022-10-21T10:02:25.606Z,168
2022-10-21T10:03:25.344Z,184
2022-10-21T10:04:25.320Z,196
2022-10-21T10:05:25.332Z,212
2022-10-21T10:06:25.370Z,220
2022-10-21T10:07:25.352Z,220
2022-10-21T10:08:25.352Z,216
2022-10-21T10:09:25.336Z,208
2022-10-21T10:10:25.323Z,208
2022-10-21T10:11:25.332Z,204
2022-10-21T10:12:25.349Z,200
2022-10-21T10:13:25.434Z,192
2022-10-21T10:14:25.425Z,188
2022-10-21T10:15:32.018Z,188
2022-10-21T10:16:25.315Z,188
2022-10-21T10:17:25.318Z,188
2022-10-21T10:18:25.320Z,180
2022-10-21T10:19:25.576Z,180
2022-10-21T10:20:28.383Z,168
2022-10-21T10:21:25.343Z,160
2022-10-21T10:22:25.345Z,156
2022-10-21T10:23:25.375Z,152
2022-10-21T10:24:25.357Z,144
2022-10-21T10:25:25.362Z,148
2022-10-21T10:26:25.369Z,164
2022-10-21T10:27:26.372Z,180
2022-10-21T10:28:25.410Z,180
2022-10-21T10:29:25.397Z,168
2022-10-21T10:30:25.340Z,156
2022-10-21T10:31:28.382Z,152
2022-10-21T10:32:25.336Z,148
2022-10-21T10:33:25.354Z,148
2022-10-21T10:34:25.339Z,160
2022-10-21T10:35:25.354Z,168
2022-10-21T10:36:28.354Z,168
2022-10-21T10:37:25.353Z,168
2022-10-21T10:38:25.360Z,168
2022-10-21T10:39:25.473Z,172
2022-10-21T10:40:25.513Z,176
2022-10-21T10:41:25.532Z,180
2022-10-21T10:42:28.387Z,188
2022-10-21T10:43:25.370Z,200
2022-10-21T10:44:25.484Z,212
2022-10-21T10:45:25.379Z,224
2022-10-21T10:46:25.382Z,236
2022-10-21T10:47:28.384Z,232
2022-10-21T10:48:25.378Z,224
2022-10-21T10:49:25.378Z,204
2022-10-21T10:50:25.392Z,188
2022-10-21T10:51:25.378Z,168
2022-10-21T10:52:25.398Z,152
2022-10-21T10:53:28.451Z,132
2022-10-21T10:54:25.386Z,120
2022-10-21T10:55:25.503Z,116
2022-10-21T10:56:25.509Z,116
2022-10-21T10:57:58.768Z,116
2022-10-21T10:58:33.406Z,116
2022-10-21T10:59:28.513Z,112
2022-10-21T11:00:25.404Z,112
2022-10-21T11:01:25.997Z,108
2022-10-21T11:02:25.417Z,100
2022-10-21T11:03:30.790Z,80
2022-10-21T11:04:28.243Z,60
2022-10-21T11:05:25.417Z,48
2022-10-21T11:06:25.477Z,44
2022-10-21T11:07:25.425Z,36
2022-10-21T11:08:25.432Z,44
2022-10-21T11:09:32.123Z,68
2022-10-21T11:10:25.445Z,84
2022-10-21T11:11:25.552Z,88
2022-10-21T11:12:25.540Z,84
2022-10-21T11:13:25.550Z,64
2022-10-21T11:14:29.394Z,60
2022-10-21T11:15:25.565Z,72
2022-10-21T11:16:25.411Z,76
2022-10-21T11:17:25.434Z,48
2022-10-21T11:18:32.648Z,36
2022-10-21T11:19:25.420Z,36
2022-10-21T11:20:28.476Z,36
2022-10-21T11:21:25.448Z,48
2022-10-21T11:22:25.419Z,60
2022-10-21T11:23:25.440Z,56
2022-10-21T11:24:25.442Z,60
2022-10-21T11:25:25.464Z,64
2022-10-21T11:26:25.436Z,52
2022-10-21T11:27:26.290Z,48
2022-10-21T11:28:25.586Z,52
2022-10-21T11:29:25.585Z,60
2022-10-21T11:30:25.478Z,76
2022-10-21T11:31:28.569Z,104
2022-10-21T11:32:25.444Z,132
2022-10-21T11:33:25.448Z,156
2022-10-21T11:34:25.453Z,176
2022-10-21T11:35:25.585Z,196
2022-10-21T11:36:25.469Z,196
2022-10-21T11:37:25.450Z,180
2022-10-21T11:38:25.460Z,152
2022-10-21T11:39:28.383Z,132
2022-10-21T11:40:25.479Z,140
2022-10-21T11:41:32.588Z,168
2022-10-21T11:42:28.562Z,188
2022-10-21T11:43:25.582Z,180
2022-10-21T11:44:29.656Z,172
2022-10-21T11:45:25.619Z,152
2022-10-21T11:46:25.489Z,144
2022-10-21T11:47:28.804Z,152
2022-10-21T11:48:25.479Z,160
2022-10-21T11:49:25.540Z,168
2022-10-21T11:50:25.544Z,172
2022-10-21T11:51:25.485Z,164
2022-10-21T11:52:25.476Z,160
2022-10-21T11:53:28.308Z,152
2022-10-21T11:54:25.483Z,136
2022-10-21T11:55:31.066Z,124
2022-10-21T11:56:25.514Z,120
2022-10-21T11:57:25.535Z,124
2022-10-21T11:58:26.556Z,128
2022-10-21T12:00:25.651Z,120
2022-10-21T12:01:25.624Z,136
2022-10-21T12:02:25.995Z,152
2022-10-21T12:03:25.633Z,152
2022-10-21T12:04:28.518Z,140
2022-10-21T12:05:25.516Z,132
2022-10-21T12:06:25.500Z,132
2022-10-21T12:07:25.507Z,132
2022-10-21T12:09:28.330Z,120
2022-10-21T12:10:25.527Z,116
2022-10-21T12:11:25.533Z,120
2022-10-21T12:12:25.521Z,124
2022-10-21T12:13:25.536Z,128
2022-10-21T12:14:31.242Z,144
2022-10-21T12:15:28.831Z,156
2022-10-21T12:16:25.532Z,172
2022-10-21T12:17:25.772Z,176
2022-10-21T12:18:25.551Z,168
2022-10-21T12:19:25.652Z,160
2022-10-21T12:20:30.823Z,144
2022-10-21T12:21:25.522Z,116
2022-10-21T12:22:25.583Z,80
2022-10-21T12:23:25.551Z,92
2022-10-21T12:24:25.542Z,132
2022-10-21T12:25:25.580Z,148
2022-10-21T12:26:25.406Z,140
2022-10-21T12:27:25.549Z,116
2022-10-21T12:28:25.539Z,92
2022-10-21T12:29:25.551Z,88
2022-10-21T12:30:32.357Z,76
2022-10-21T12:31:25.549Z,84
2022-10-21T12:32:25.574Z,92
2022-10-21T12:33:25.675Z,96
2022-10-21T12:34:25.542Z,100
2022-10-21T12:35:25.690Z,104
2022-10-21T12:36:25.573Z,108
2022-10-21T12:37:25.557Z,116
2022-10-21T12:38:25.400Z,136
2022-10-21T12:39:25.566Z,184
2022-10-21T12:40:25.619Z,280
2022-10-21T12:41:25.562Z,340
2022-10-21T12:42:25.582Z,396
2022-10-21T12:43:25.570Z,400
2022-10-21T12:44:25.572Z,348
2022-10-21T12:45:25.413Z,284
2022-10-21T12:46:25.738Z,228
2022-10-21T12:47:28.774Z,192
2022-10-21T12:48:25.595Z,172
2022-10-21T12:49:25.620Z,156
2022-10-21T12:50:25.583Z,140
2022-10-21T12:51:25.736Z,124
2022-10-21T12:52:25.587Z,120
2022-10-21T12:53:25.589Z,128
2022-10-21T12:54:32.752Z,160
2022-10-21T12:55:25.594Z,204
2022-10-21T12:56:25.616Z,284
2022-10-21T12:57:25.717Z,384
2022-10-21T12:58:26.661Z,488
2022-10-21T12:59:25.599Z,508
2022-10-21T13:00:26.810Z,516
2022-10-21T13:01:25.956Z,464
2022-10-21T13:02:28.871Z,476
2022-10-21T13:03:28.400Z,488
2022-10-21T13:04:25.623Z,352
2022-10-21T13:05:25.670Z,296
2022-10-21T13:06:25.628Z,292
2022-10-21T13:07:25.703Z,356
2022-10-21T13:08:25.633Z,276
2022-10-21T13:09:29.856Z,272
2022-10-21T13:10:25.654Z,308
2022-10-21T13:11:25.652Z,420
2022-10-21T13:12:25.641Z,376
2022-10-21T13:13:25.624Z,424
2022-10-21T13:14:35.092Z,404
2022-10-21T13:15:25.661Z,328
2022-10-21T13:16:25.656Z,332
2022-10-21T13:17:25.665Z,344
2022-10-21T13:18:25.974Z,308
2022-10-21T13:19:25.662Z,308
2022-10-21T13:20:28.666Z,300
2022-10-21T13:21:28.145Z,300
2022-10-21T13:22:25.633Z,304
2022-10-21T13:23:25.716Z,304
2022-10-21T13:24:25.737Z,304
2022-10-21T13:25:28.659Z,312
2022-10-21T13:26:25.681Z,316
2022-10-21T13:27:25.791Z,308
2022-10-21T13:28:25.489Z,300
2022-10-21T13:29:25.825Z,304
2022-10-21T13:30:25.655Z,300
2022-10-21T13:31:28.939Z,304
2022-10-21T13:32:26.239Z,304
2022-10-21T13:33:25.952Z,300
2022-10-21T13:34:25.865Z,288
2022-10-21T13:35:26.173Z,280
2022-10-21T13:36:29.056Z,280
2022-10-21T13:37:25.756Z,284
2022-10-21T13:38:25.671Z,292
2022-10-21T13:39:25.880Z,292
2022-10-21T13:40:25.701Z,284
2022-10-21T13:41:28.559Z,292
2022-10-21T13:42:32.712Z,276
2022-10-21T13:43:25.868Z,296
2022-10-21T13:44:25.672Z,304
2022-10-21T13:45:26.862Z,336
2022-10-21T13:46:25.716Z,324
2022-10-21T13:47:28.852Z,352
2022-10-21T13:48:25.877Z,300
2022-10-21T13:49:28.497Z,304
2022-10-21T13:50:25.694Z,324
2022-10-21T13:51:25.884Z,316
2022-10-21T13:52:25.689Z,316
2022-10-21T13:53:25.726Z,364
2022-10-21T13:54:25.694Z,416
2022-10-21T13:55:25.731Z,408
2022-10-21T13:56:25.714Z,360
2022-10-21T13:57:25.706Z,320
2022-10-21T13:58:28.567Z,320
2022-10-21T13:59:25.710Z,364
2022-10-21T14:00:25.690Z,356
2022-10-21T14:01:25.817Z,340
2022-10-21T14:02:25.707Z,292
2022-10-21T14:03:25.738Z,260
2022-10-21T14:04:25.706Z,252
2022-10-21T14:05:25.781Z,240
2022-10-21T14:06:25.726Z,284
2022-10-21T14:07:25.713Z,296
2022-10-21T14:08:25.718Z,296
2022-10-21T14:09:29.170Z,264
2022-10-21T14:10:25.734Z,280
2022-10-21T14:11:25.757Z,284
2022-10-21T14:12:25.724Z,280
2022-10-21T14:13:25.736Z,288
2022-10-21T14:14:29.024Z,324
2022-10-21T14:15:25.757Z,340
2022-10-21T14:16:25.745Z,340
2022-10-21T14:17:25.732Z,308
2022-10-21T14:18:34.912Z,264
2022-10-21T14:19:25.725Z,260
2022-10-21T14:20:28.717Z,244
2022-10-21T14:21:28.828Z,236
2022-10-21T14:22:25.769Z,228
2022-10-21T14:23:25.752Z,220
2022-10-21T14:24:25.749Z,220
2022-10-21T14:25:28.808Z,216
2022-10-21T14:26:25.821Z,212
2022-10-21T14:27:25.775Z,256
2022-10-21T14:28:25.744Z,304
2022-10-21T14:29:25.931Z,256
2022-10-21T14:30:25.772Z,240
2022-10-21T14:31:28.639Z,220
2022-10-21T14:32:25.757Z,204
2022-10-21T14:33:25.773Z,224
2022-10-21T14:34:25.593Z,264
2022-10-21T14:35:25.762Z,216